createdAt,value
2022-08-04T00:00:03.360Z,18.59
2022-08-04T00:03:02.571Z,18.48
2022-08-04T00:06:13.334Z,18.43
2022-08-04T00:09:04.458Z,18.44
2022-08-04T00:11:51.416Z,18.41
2022-08-04T00:14:42.364Z,18.37
2022-08-04T00:17:35.360Z,18.33
2022-08-04T00:20:28.369Z,18.24
2022-08-04T00:23:09.499Z,18.05
2022-08-04T00:25:56.362Z,18.06
2022-08-04T00:28:37.319Z,18.12
2022-08-04T00:31:54.109Z,18.16
2022-08-04T00:34:25.445Z,18.03
2022-08-04T00:37:13.367Z,18.11
2022-08-04T00:39:53.471Z,18.10
2022-08-04T00:43:01.387Z,18.04
2022-08-04T00:46:17.295Z,18.03
2022-08-04T00:49:22.445Z,17.79
2022-08-04T00:52:31.805Z,17.92
2022-08-04T00:55:43.389Z,17.76
2022-08-04T00:58:35.482Z,17.83
2022-08-04T01:02:01.383Z,17.86
2022-08-04T01:05:18.387Z,17.83
2022-08-04T01:08:35.398Z,17.78
2022-08-04T01:11:23.383Z,17.66
2022-08-04T01:14:25.579Z,17.65
2022-08-04T01:17:19.479Z,17.61
2022-08-04T01:20:16.399Z,17.56
2022-08-04T01:23:32.390Z,17.46
2022-08-04T01:26:55.100Z,17.33
2022-08-04T01:29:51.383Z,17.37
2022-08-04T01:32:45.422Z,17.34
2022-08-04T01:35:47.695Z,17.42
2022-08-04T01:38:33.678Z,17.23
2022-08-04T01:41:32.266Z,17.15
2022-08-04T01:44:14.710Z,17.25
2022-08-04T01:47:04.408Z,17.32
2022-08-04T01:49:49.137Z,17.28
2022-08-04T01:52:37.396Z,17.33
2022-08-04T01:55:25.427Z,17.31
2022-08-04T01:58:26.488Z,17.25
2022-08-04T02:01:16.455Z,17.17
2022-08-04T02:04:18.126Z,17.19
2022-08-04T02:07:08.547Z,17.18
2022-08-04T02:10:05.401Z,17.19
2022-08-04T02:13:06.415Z,17.17
2022-08-04T02:15:46.470Z,17.17
2022-08-04T02:19:03.411Z,17.13
2022-08-04T02:21:53.404Z,17.11
2022-08-04T02:24:46.446Z,17.11
2022-08-04T02:28:00.160Z,17.12
2022-08-04T02:30:53.433Z,17.06
2022-08-04T02:33:43.491Z,16.87
2022-08-04T02:36:37.439Z,16.82
2022-08-04T02:39:18.558Z,16.80
2022-08-04T02:42:06.417Z,16.86
2022-08-04T02:44:50.548Z,16.91
2022-08-04T02:48:29.477Z,16.95
2022-08-04T02:50:41.826Z,16.94
2022-08-04T02:53:29.423Z,16.90
2022-08-04T02:56:16.434Z,16.91
2022-08-04T02:59:07.441Z,16.90
2022-08-04T03:01:57.043Z,16.86
2022-08-04T03:05:04.429Z,16.80
2022-08-04T03:08:21.430Z,16.79
2022-08-04T03:11:43.488Z,16.76
2022-08-04T03:14:24.505Z,16.75
2022-08-04T03:17:12.588Z,16.72
2022-08-04T03:20:05.814Z,16.68
2022-08-04T03:23:27.445Z,16.50
2022-08-04T03:26:37.509Z,16.50
2022-08-04T03:29:36.418Z,16.56
2022-08-04T03:32:36.519Z,16.51
2022-08-04T03:35:53.477Z,16.52
2022-08-04T03:38:55.714Z,16.48
2022-08-04T03:42:04.125Z,16.44
2022-08-04T03:45:23.511Z,16.42
2022-08-04T03:48:47.458Z,16.33
2022-08-04T03:52:06.489Z,16.29
2022-08-04T03:55:03.160Z,16.16
2022-08-04T03:58:04.456Z,16.15
2022-08-04T04:01:07.477Z,16.14
2022-08-04T04:03:58.463Z,16.03
2022-08-04T04:06:39.757Z,16.05
2022-08-04T04:09:53.870Z,16.09
2022-08-04T04:12:49.693Z,16.12
2022-08-04T04:16:03.495Z,16.24
2022-08-04T04:18:59.815Z,16.30
2022-08-04T04:22:11.534Z,16.18
2022-08-04T04:24:51.731Z,16.17
2022-08-04T04:27:38.488Z,16.29
2022-08-04T04:30:31.641Z,16.37
2022-08-04T04:33:48.483Z,16.37
2022-08-04T04:36:44.153Z,16.38
2022-08-04T04:39:39.493Z,16.35
2022-08-04T04:42:54.464Z,16.34
2022-08-04T04:45:51.477Z,16.42
2022-08-04T04:48:38.484Z,16.50
2022-08-04T04:51:34.142Z,16.53
2022-08-04T04:54:33.494Z,16.53
2022-08-04T04:57:17.802Z,16.54
2022-08-04T05:00:15.499Z,16.59
2022-08-04T05:03:00.431Z,16.65
2022-08-04T05:06:01.505Z,16.66
2022-08-04T05:09:18.493Z,16.77
2022-08-04T05:13:05.074Z,16.87
2022-08-04T05:15:36.003Z,16.96
2022-08-04T05:18:26.490Z,17.03
2022-08-04T05:21:21.517Z,17.09
2022-08-04T05:24:13.494Z,17.21
2022-08-04T05:27:03.550Z,17.29
2022-08-04T05:29:48.559Z,17.38
2022-08-04T05:32:43.507Z,17.52
2022-08-04T05:35:49.782Z,17.60
2022-08-04T05:38:44.525Z,17.73
2022-08-04T05:41:45.969Z,17.82
2022-08-04T05:44:29.067Z,17.94
2022-08-04T05:47:16.532Z,18.09
2022-08-04T05:50:01.868Z,18.19
2022-08-04T05:52:51.529Z,18.37
2022-08-04T05:55:56.635Z,18.48
2022-08-04T05:58:40.538Z,18.65
2022-08-04T06:01:30.578Z,18.75
2022-08-04T06:04:13.445Z,18.89
2022-08-04T06:07:02.529Z,19.03
2022-08-04T06:09:49.501Z,19.08
2022-08-04T06:12:37.663Z,19.19
2022-08-04T06:15:26.522Z,19.28
2022-08-04T06:19:57.767Z,19.34
2022-08-04T06:21:22.524Z,19.46
2022-08-04T06:24:10.536Z,19.57
2022-08-04T06:26:59.541Z,19.63
2022-08-04T06:29:51.642Z,19.70
2022-08-04T06:32:53.558Z,19.85
2022-08-04T06:35:44.588Z,19.93
2022-08-04T06:38:33.555Z,20.05
2022-08-04T06:41:24.530Z,20.11
2022-08-04T06:44:15.555Z,20.28
2022-08-04T06:46:55.616Z,20.45
2022-08-04T06:51:25.896Z,20.58
2022-08-04T06:52:52.551Z,20.74
2022-08-04T06:55:34.391Z,20.92
2022-08-04T06:58:23.572Z,21.11
2022-08-04T07:01:11.549Z,21.23
2022-08-04T07:03:58.575Z,21.24
2022-08-04T07:06:39.127Z,21.28
2022-08-04T07:09:25.539Z,21.28
2022-08-04T07:12:14.564Z,21.41
2022-08-04T07:15:03.563Z,21.59
2022-08-04T07:17:45.475Z,21.81
2022-08-04T07:20:37.066Z,21.72
2022-08-04T07:23:23.137Z,21.72
2022-08-04T07:26:12.693Z,21.76
2022-08-04T07:28:52.891Z,21.78
2022-08-04T07:31:40.567Z,21.79
2022-08-04T07:34:27.556Z,21.91
2022-08-04T07:37:11.645Z,21.90
2022-08-04T07:39:58.690Z,22.05
2022-08-04T07:42:52.567Z,22.21
2022-08-04T07:45:32.584Z,22.26
2022-08-04T07:48:14.581Z,22.32
2022-08-04T07:51:01.587Z,22.40
2022-08-04T07:53:53.985Z,22.58
2022-08-04T07:56:43.576Z,22.77
2022-08-04T07:59:24.763Z,22.96
2022-08-04T08:02:15.598Z,23.24
2022-08-04T08:05:02.588Z,23.37
2022-08-04T08:07:50.685Z,23.49
2022-08-04T08:10:42.601Z,23.55
2022-08-04T08:13:33.214Z,23.54
2022-08-04T08:16:13.346Z,23.61
2022-08-04T08:18:59.592Z,23.78
2022-08-04T08:21:59.281Z,23.96
2022-08-04T08:24:53.582Z,23.91
2022-08-04T08:27:40.585Z,23.96
2022-08-04T08:30:35.719Z,24.05
2022-08-04T08:33:23.589Z,24.29
2022-08-04T08:36:26.608Z,24.49
2022-08-04T08:39:32.676Z,24.71
2022-08-04T08:42:13.682Z,24.80
2022-08-04T08:45:32.601Z,24.95
2022-08-04T08:48:13.679Z,25.05
2022-08-04T08:51:15.599Z,25.09
2022-08-04T08:54:00.685Z,25.13
2022-08-04T08:57:22.785Z,25.28
2022-08-04T09:00:44.611Z,25.39
2022-08-04T09:03:47.270Z,25.41
2022-08-04T09:06:57.619Z,25.38
2022-08-04T09:10:13.119Z,25.34
2022-08-04T09:13:04.627Z,25.38
2022-08-04T09:15:44.898Z,25.40
2022-08-04T09:18:37.604Z,25.54
2022-08-04T09:21:36.649Z,25.72
2022-08-04T09:24:36.543Z,25.73
2022-08-04T09:27:23.095Z,25.86
2022-08-04T09:30:25.621Z,26.00
2022-08-04T09:33:44.684Z,26.05
2022-08-04T09:36:45.732Z,26.07
2022-08-04T09:39:44.506Z,26.20
2022-08-04T09:43:08.749Z,26.26
2022-08-04T09:46:08.797Z,26.46
2022-08-04T09:49:05.661Z,26.61
2022-08-04T09:52:05.636Z,26.72
2022-08-04T09:55:00.819Z,26.88
2022-08-04T09:57:55.643Z,26.94
2022-08-04T10:00:42.243Z,27.06
2022-08-04T10:03:32.747Z,27.06
2022-08-04T10:06:36.699Z,27.16
2022-08-04T10:09:32.185Z,27.04
2022-08-04T10:12:42.665Z,27.26
2022-08-04T10:15:41.666Z,27.43
2022-08-04T10:18:36.667Z,27.38
2022-08-04T10:21:59.362Z,27.32
2022-08-04T10:26:03.263Z,27.25
2022-08-04T10:28:13.102Z,27.29
2022-08-04T10:31:05.667Z,27.28
2022-08-04T10:34:07.680Z,27.50
2022-08-04T10:37:00.665Z,27.74
2022-08-04T10:40:15.819Z,27.95
2022-08-04T10:43:23.098Z,28.12
2022-08-04T10:46:18.124Z,28.23
2022-08-04T10:49:17.669Z,28.33
2022-08-04T10:52:18.668Z,28.35
2022-08-04T10:55:10.750Z,28.36
2022-08-04T10:58:01.715Z,28.28
2022-08-04T11:00:45.760Z,28.31
2022-08-04T11:03:41.677Z,28.19
2022-08-04T11:06:21.766Z,28.43
2022-08-04T11:09:13.970Z,28.61
2022-08-04T11:12:08.730Z,28.72
2022-08-04T11:15:02.707Z,28.76
2022-08-04T11:17:54.700Z,28.94
2022-08-04T11:20:48.710Z,29.02
2022-08-04T11:23:35.893Z,28.83
2022-08-04T11:26:28.720Z,29.08
2022-08-04T11:29:25.690Z,29.17
2022-08-04T11:32:13.887Z,29.17
2022-08-04T11:35:05.714Z,29.17
2022-08-04T11:37:52.229Z,29.32
2022-08-04T11:40:55.838Z,29.44
2022-08-04T11:44:12.749Z,29.50
2022-08-04T11:47:05.724Z,29.41
2022-08-04T11:49:59.718Z,29.54
2022-08-04T11:52:49.731Z,29.58
2022-08-04T11:56:08.100Z,29.66
2022-08-04T11:58:41.319Z,29.71
2022-08-04T12:01:38.707Z,29.76
2022-08-04T12:04:47.385Z,29.73
2022-08-04T12:07:42.860Z,29.80
2022-08-04T12:10:51.763Z,29.66
2022-08-04T12:13:55.279Z,29.91
2022-08-04T12:16:55.761Z,29.94
2022-08-04T12:20:05.286Z,29.97
2022-08-04T12:22:56.751Z,30.17
2022-08-04T12:25:53.736Z,30.15
2022-08-04T12:29:08.420Z,30.29
2022-08-04T12:31:52.785Z,30.38
2022-08-04T12:34:47.764Z,30.22
2022-08-04T12:37:45.882Z,30.30
2022-08-04T12:40:32.690Z,30.37
2022-08-04T12:43:31.765Z,30.35
2022-08-04T12:46:15.822Z,30.28
2022-08-04T12:49:08.762Z,30.17
2022-08-04T12:52:08.066Z,30.14
2022-08-04T12:55:00.818Z,30.07
2022-08-04T12:57:42.830Z,30.47
2022-08-04T13:00:35.427Z,30.54
2022-08-04T13:03:23.984Z,30.48
2022-08-04T13:06:12.778Z,30.39
2022-08-04T13:08:53.857Z,30.34
2022-08-04T13:11:45.771Z,30.39
2022-08-04T13:14:29.031Z,30.67
2022-08-04T13:17:15.767Z,30.66
2022-08-04T13:19:56.933Z,30.75
2022-08-04T13:22:46.567Z,30.71
2022-08-04T13:26:44.708Z,30.59
2022-08-04T13:28:34.795Z,30.44
2022-08-04T13:31:20.073Z,30.92
2022-08-04T13:34:18.926Z,30.99
2022-08-04T13:37:02.794Z,30.82
2022-08-04T13:39:43.897Z,30.68
2022-08-04T13:42:44.817Z,30.49
2022-08-04T13:45:33.831Z,30.50
2022-08-04T13:48:32.427Z,30.42
2022-08-04T13:51:24.815Z,30.40
2022-08-04T13:54:27.167Z,30.43
2022-08-04T13:57:27.815Z,30.40
2022-08-04T14:00:09.652Z,30.37
2022-08-04T14:03:23.085Z,30.45
2022-08-04T14:06:21.154Z,30.63
2022-08-04T14:09:35.843Z,30.71
2022-08-04T14:12:38.388Z,30.74
2022-08-04T14:16:03.620Z,30.64
2022-08-04T14:18:50.844Z,30.73
2022-08-04T14:21:37.947Z,30.77
2022-08-04T14:24:34.813Z,30.68
2022-08-04T14:27:21.976Z,30.56
2022-08-04T14:30:08.843Z,30.60
2022-08-04T14:34:04.583Z,30.57
2022-08-04T14:36:22.481Z,30.43
2022-08-04T14:39:13.912Z,30.54
2022-08-04T14:42:00.831Z,30.84
2022-08-04T14:45:10.843Z,31.15
2022-08-04T14:47:57.850Z,31.32
2022-08-04T14:50:53.913Z,31.31
2022-08-04T14:53:43.852Z,31.09
2022-08-04T14:56:37.812Z,30.95
2022-08-04T14:59:31.847Z,30.87
2022-08-04T15:02:11.974Z,30.80
2022-08-04T15:04:58.881Z,30.77
2022-08-04T15:07:39.916Z,30.77
2022-08-04T15:10:26.846Z,30.87
2022-08-04T15:13:08.926Z,31.09
2022-08-04T15:16:00.985Z,31.30
2022-08-04T15:18:49.301Z,31.26
2022-08-04T15:21:36.879Z,31.32
2022-08-04T15:24:16.919Z,31.25
2022-08-04T15:27:06.862Z,31.17
2022-08-04T15:29:59.734Z,31.21
2022-08-04T15:32:48.539Z,31.27
2022-08-04T15:35:39.137Z,31.11
2022-08-04T15:38:33.858Z,31.42
2022-08-04T15:41:27.877Z,31.50
2022-08-04T15:44:16.900Z,31.70
2022-08-04T15:46:56.984Z,31.49
2022-08-04T15:49:45.878Z,31.19
2022-08-04T15:52:26.152Z,31.11
2022-08-04T15:55:45.904Z,30.88
2022-08-04T15:58:29.965Z,30.89
2022-08-04T16:01:21.963Z,30.84
2022-08-04T16:04:02.053Z,30.72
2022-08-04T16:06:49.902Z,30.68
2022-08-04T16:09:46.089Z,30.67
2022-08-04T16:12:55.229Z,30.63
2022-08-04T16:16:03.374Z,30.89
2022-08-04T16:18:44.587Z,30.87
2022-08-04T16:21:33.897Z,30.77
2022-08-04T16:24:19.308Z,30.69
2022-08-04T16:27:12.896Z,30.58
2022-08-04T16:30:14.314Z,30.48
2022-08-04T16:32:55.545Z,30.48
2022-08-04T16:35:42.434Z,30.44
2022-08-04T16:38:23.003Z,30.44
2022-08-04T16:41:09.910Z,30.43
2022-08-04T16:43:56.960Z,30.36
2022-08-04T16:47:08.910Z,30.34
2022-08-04T16:49:49.499Z,30.25
2022-08-04T16:52:38.936Z,30.17
2022-08-04T16:55:21.478Z,30.09
2022-08-04T16:58:10.937Z,30.02
2022-08-04T17:00:52.316Z,29.89
2022-08-04T17:03:39.948Z,29.82
2022-08-04T17:06:20.363Z,29.73
2022-08-04T17:09:06.947Z,29.64
2022-08-04T17:11:54.959Z,29.55
2022-08-04T17:14:37.036Z,29.45
2022-08-04T17:18:04.012Z,29.32
2022-08-04T17:20:59.388Z,29.04
2022-08-04T17:24:14.479Z,28.99
2022-08-04T17:26:56.986Z,28.96
2022-08-04T17:32:43.948Z,28.63
2022-08-04T17:35:38.473Z,28.46
2022-08-04T17:38:25.953Z,28.37
2022-08-04T17:41:19.475Z,28.54
2022-08-04T17:44:17.669Z,28.44
2022-08-04T17:46:58.333Z,28.27
2022-08-04T17:49:53.227Z,28.29
2022-08-04T17:52:45.339Z,28.23
2022-08-04T17:55:32.031Z,28.01
2022-08-04T17:58:23.154Z,27.91
2022-08-04T18:04:30.000Z,27.51
2022-08-04T18:10:51.809Z,27.06
2022-08-04T18:13:42.973Z,26.99
2022-08-04T18:16:29.993Z,26.88
2022-08-04T18:19:19.623Z,26.69
2022-08-04T18:22:07.355Z,26.49
2022-08-04T18:24:55.807Z,26.38
2022-08-04T18:27:54.024Z,26.18
2022-08-04T18:30:55.035Z,26.08
2022-08-04T18:33:39.939Z,25.92
2022-08-04T18:36:37.284Z,25.77
2022-08-04T18:39:18.616Z,25.67
2022-08-04T18:42:26.112Z,25.56
2022-08-04T18:45:19.996Z,25.44
2022-08-04T18:48:14.438Z,25.29
2022-08-04T18:51:10.953Z,25.18
2022-08-04T18:54:02.020Z,25.02
2022-08-04T18:57:08.593Z,24.95
2022-08-04T18:59:49.031Z,24.85
2022-08-04T19:02:27.438Z,24.76
2022-08-04T19:04:54.199Z,24.66
2022-08-04T19:07:29.686Z,24.59
2022-08-04T19:09:58.180Z,24.55
2022-08-04T19:12:26.739Z,24.48
2022-08-04T19:14:58.327Z,24.42
2022-08-04T19:17:53.856Z,24.40
2022-08-04T19:20:24.140Z,24.30
2022-08-04T19:24:11.269Z,24.27
2022-08-04T19:25:41.690Z,24.23
2022-08-04T19:28:29.274Z,24.13
2022-08-04T19:30:58.025Z,24.04
2022-08-04T19:36:11.697Z,23.77
2022-08-04T19:38:38.492Z,23.78
2022-08-04T19:41:14.381Z,23.78
2022-08-04T19:43:43.600Z,23.69
2022-08-04T19:46:12.175Z,23.69
2022-08-04T19:48:39.734Z,23.69
2022-08-04T19:51:07.763Z,23.56
2022-08-04T19:53:37.986Z,23.55
2022-08-04T19:56:12.185Z,23.51
2022-08-04T19:58:38.807Z,23.47
2022-08-04T20:01:05.539Z,23.32
2022-08-04T20:04:10.152Z,23.31
2022-08-04T20:06:37.930Z,23.19
2022-08-04T20:09:04.698Z,23.17
2022-08-04T20:11:51.367Z,23.10
2022-08-04T20:14:19.628Z,23.07
2022-08-04T20:16:58.947Z,22.98
2022-08-04T20:19:25.787Z,23.00
2022-08-04T20:21:56.360Z,22.92
2022-08-04T20:24:36.785Z,22.90
2022-08-04T20:27:15.379Z,22.83
2022-08-04T20:32:31.127Z,22.76
2022-08-04T20:34:58.705Z,22.65
2022-08-04T20:40:14.634Z,22.64
2022-08-04T20:42:41.536Z,22.56
2022-08-04T20:45:16.246Z,22.51
2022-08-04T20:47:54.124Z,22.40
2022-08-04T20:50:30.255Z,22.36
2022-08-04T20:52:57.296Z,22.30
2022-08-04T20:55:25.400Z,22.26
2022-08-04T20:58:00.843Z,22.22
2022-08-04T21:00:30.668Z,22.19
2022-08-04T21:02:59.164Z,22.15
2022-08-04T21:05:26.564Z,22.07
2022-08-04T21:07:56.743Z,21.95
2022-08-04T21:10:24.775Z,21.92
2022-08-04T21:12:53.219Z,21.92
2022-08-04T21:15:24.635Z,21.92
2022-08-04T21:17:57.529Z,21.91
2022-08-04T21:20:29.522Z,21.90
2022-08-04T21:23:01.573Z,21.87
2022-08-04T21:25:28.557Z,21.86
2022-08-04T21:27:58.501Z,21.83
2022-08-04T21:30:26.359Z,21.79
2022-08-04T21:32:54.927Z,21.71
2022-08-04T21:35:30.126Z,21.68
2022-08-04T21:38:16.624Z,21.55
2022-08-04T21:41:01.531Z,21.48
2022-08-04T21:43:29.944Z,21.51
2022-08-04T21:46:09.490Z,21.45
2022-08-04T21:48:36.078Z,21.49
2022-08-04T21:52:00.656Z,21.46
2022-08-04T21:54:15.234Z,21.40
2022-08-04T21:56:50.909Z,21.37
2022-08-04T21:59:23.782Z,21.40
2022-08-04T22:01:57.918Z,21.23
2022-08-04T22:04:27.075Z,21.22
2022-08-04T22:06:53.760Z,21.14
2022-08-04T22:09:21.900Z,21.15
2022-08-04T22:11:51.002Z,21.19
2022-08-04T22:14:27.159Z,21.16
2022-08-04T22:16:56.489Z,21.16
2022-08-04T22:19:39.600Z,21.10
2022-08-04T22:22:13.649Z,21.11
2022-08-04T22:24:53.119Z,21.08
2022-08-04T22:27:34.984Z,21.03
2022-08-04T22:30:09.285Z,20.95
2022-08-04T22:32:43.334Z,20.77
2022-08-04T22:35:36.471Z,20.82
2022-08-04T22:37:57.419Z,20.67
2022-08-04T22:40:34.558Z,20.72
2022-08-04T22:43:03.070Z,20.70
2022-08-04T22:45:44.326Z,20.68
2022-08-04T22:48:11.670Z,20.66
2022-08-04T22:50:38.427Z,20.62
2022-08-04T22:53:06.509Z,20.57
2022-08-04T22:56:07.693Z,20.55
2022-08-04T22:58:20.065Z,20.49
2022-08-04T23:00:53.099Z,20.26
2022-08-04T23:03:37.191Z,20.27
2022-08-04T23:06:10.875Z,20.26
2022-08-04T23:08:39.281Z,20.22
2022-08-04T23:11:10.317Z,20.29
2022-08-04T23:13:37.590Z,20.31
2022-08-04T23:16:09.996Z,20.33
2022-08-04T23:18:41.893Z,20.27
2022-08-04T23:21:10.507Z,20.22
2022-08-04T23:23:55.305Z,20.22
2022-08-04T23:26:27.720Z,20.22
2022-08-04T23:28:56.039Z,20.15
2022-08-04T23:31:23.144Z,20.13
2022-08-04T23:33:51.033Z,20.12
2022-08-04T23:36:30.004Z,20.07
2022-08-04T23:39:00.564Z,20.00
2022-08-04T23:41:55.393Z,19.96
2022-08-04T23:44:17.566Z,19.87
2022-08-04T23:47:01.345Z,19.89
2022-08-04T23:49:43.519Z,19.90
2022-08-04T23:52:23.529Z,19.85
2022-08-04T23:54:59.151Z,19.85
2022-08-04T23:58:02.052Z,19.79
